Spirit Of Vi — CFL2070 — position and weather

sailwx.info

Track history (hours):
 
Tides and Currents Weather Stations Pressure Air Temp Water Temp Dewpoint Dewpoint Depression Visibility Wind Speed Wind Dir Waves Ship Positions

Spirit Of Vi

Last reported at 2017-Sep-22 02:01 UTC. Time now 2017-Sep-22 06:13 UTC.
Position N 48°41' W 123°25'.

Length 168 m; draft 5 m.

Type: Ship. MMSI: 316001269.

Date/timePositionNaut miles runAvg speedWind from/ knotsBaromVisibWave heightAir tempDewpointWater temp
2017-Sep-22 02:01N 48°41' W 123°25'0 0.3
2017-Sep-22 01:30N 48°41' W 123°25'815.4
2017-Sep-22 01:00N 48°49' W 123°21'815.3
2017-Sep-22 00:30N 48°56' W 123°15'713.7
2017-Sep-22 00:00N 49°00' W 123°08'0 0.3
2017-Sep-21 23:30N 49°00' W 123°08'715.0
2017-Sep-21 23:00N 48°54' W 123°15'815.5
2017-Sep-21 22:30N 48°48' W 123°21'713.3
2017-Sep-21 22:00N 48°41' W 123°25'0 0.7
2017-Sep-21 21:31N 48°41' W 123°24'917.5
2017-Sep-21 21:01N 48°50' W 123°21'612.5
2017-Sep-21 20:30N 48°55' W 123°16'714.4
2017-Sep-21 20:01N 49°00' W 123°08'1 1.0
2017-Sep-21 19:30N 48°60' W 123°08'1019.6
2017-Sep-21 19:00N 48°52' W 123°18'715.0
2017-Sep-21 18:30N 48°45' W 123°22'4 8.8
2017-Sep-21 18:00N 48°41' W 123°25'0 0.0
2017-Sep-21 17:31N 48°41' W 123°25'814.9
2017-Sep-21 17:00N 48°48' W 123°21'815.5
2017-Sep-21 16:30N 48°55' W 123°15'713.9
2017-Sep-21 16:00N 49°00' W 123°08'0 0.0
2017-Sep-21 15:30N 49°00' W 123°08'816.8
2017-Sep-21 15:01N 48°54' W 123°16'713.1
2017-Sep-21 14:30N 48°48' W 123°21'714.3
2017-Sep-21 14:00N 48°41' W 123°25'0 0.1
2017-Sep-21 13:31N 48°41' W 123°25'0 0.0
2017-Sep-21 13:00N 48°41' W 123°25'0 0.0
2017-Sep-21 12:30N 48°41' W 123°25'0 0.0
2017-Sep-21 12:00N 48°41' W 123°25'0 0.0
2017-Sep-21 11:30N 48°41' W 123°25'0 0.0
2017-Sep-21 11:00N 48°41' W 123°25'0 0.0
2017-Sep-21 10:30N 48°41' W 123°25'0 0.0
2017-Sep-21 10:00N 48°41' W 123°25'0 0.0
2017-Sep-21 09:30N 48°41' W 123°25'0 0.0
2017-Sep-21 09:00N 48°41' W 123°25'0 0.0
2017-Sep-21 08:30N 48°41' W 123°25'0 0.0
2017-Sep-21 08:00N 48°41' W 123°25'0 0.0
2017-Sep-21 07:30N 48°41' W 123°25'0 0.0
2017-Sep-21 07:00N 48°41' W 123°25'0 0.0
2017-Sep-21 06:30N 48°41' W 123°25'0 0.0
2017-Sep-21 06:00N 48°41' W 123°25'0 0.0
2017-Sep-21 05:30N 48°41' W 123°25'714.0
2017-Sep-21 05:00N 48°48' W 123°21'815.3
2017-Sep-21 04:30N 48°55' W 123°16'815.1
2017-Sep-21 04:00N 49°00' W 123°08'0 0.4
2017-Sep-21 03:31N 49°00' W 123°08'917.9
2017-Sep-21 03:01N 48°53' W 123°17'714.3
2017-Sep-21 02:31N 48°47' W 123°21'611.6
2017-Sep-21 02:00N 48°41' W 123°25'0 0.5
2017-Sep-21 01:31N 48°41' W 123°24'816.4
2017-Sep-21 01:00N 48°49' W 123°21'816.1
2017-Sep-21 00:30N 48°56' W 123°14'611.5
2017-Sep-21 00:00N 49°00' W 123°08'0 0.0
2017-Sep-20 23:30N 49°00' W 123°08'815.5
2017-Sep-20 23:01N 48°54' W 123°16'815.8
2017-Sep-20 22:31N 48°47' W 123°21'713.0
2017-Sep-20 22:00N 48°41' W 123°25'0 0.0
2017-Sep-20 21:30N 48°41' W 123°25'714.0
2017-Sep-20 21:00N 48°48' W 123°21'815.1
2017-Sep-20 20:30N 48°55' W 123°16'815.3
2017-Sep-20 20:00N 49°00' W 123°08'0 0.0
2017-Sep-20 19:30N 49°00' W 123°08'816.3
2017-Sep-20 19:00N 48°54' W 123°16'814.8
2017-Sep-20 18:30N 48°47' W 123°21'713.4
2017-Sep-20 18:00N 48°41' W 123°25'0 0.0
2017-Sep-20 17:30N 48°41' W 123°25'714.1
2017-Sep-20 17:00N 48°48' W 123°21'815.8
2017-Sep-20 16:30N 48°55' W 123°16'714.5
2017-Sep-20 16:00N 49°00' W 123°08'0 0.0
2017-Sep-20 15:30N 49°00' W 123°08'816.2
2017-Sep-20 15:00N 48°54' W 123°16'1414.0
2017-Sep-20 14:01N 48°41' W 123°25'0 0.0
2017-Sep-20 13:30N 48°41' W 123°25'0 0.0
2017-Sep-20 13:01N 48°41' W 123°25'0 0.0
2017-Sep-20 12:29N 48°41' W 123°25'0 0.0
2017-Sep-20 11:59N 48°41' W 123°25'0 0.0
2017-Sep-20 11:29N 48°41' W 123°25'0 0.0
2017-Sep-20 10:59N 48°41' W 123°25'0 0.0
2017-Sep-20 10:29N 48°41' W 123°25'0 0.0
2017-Sep-20 09:59N 48°41' W 123°25'0 0.0
2017-Sep-20 09:29N 48°41' W 123°25'0 0.0
2017-Sep-20 08:59N 48°41' W 123°25'0 0.0
2017-Sep-20 08:29N 48°41' W 123°25'0 0.0
2017-Sep-20 07:59N 48°41' W 123°25'0 0.0
2017-Sep-20 07:29N 48°41' W 123°25'0 0.0
2017-Sep-20 06:59N 48°41' W 123°25'0 0.0
2017-Sep-20 06:29N 48°41' W 123°25'0 0.0
2017-Sep-20 05:59N 48°41' W 123°25'0 0.0
2017-Sep-20 05:29N 48°41' W 123°25'612.5
2017-Sep-20 05:01N 48°47' W 123°21'816.2
2017-Sep-20 04:31N 48°54' W 123°16'816.3
2017-Sep-20 04:00N 49°00' W 123°08'1 1.8
2017-Sep-20 03:30N 48°60' W 123°09'917.6
2017-Sep-20 03:01N 48°53' W 123°17'714.8
2017-Sep-20 02:31N 48°46' W 123°22'510.2
2017-Sep-20 02:00N 48°41' W 123°25'0 0.8
2017-Sep-20 01:30N 48°42' W 123°24'917.6
2017-Sep-20 01:01N 48°50' W 123°21'816.9
2017-Sep-20 00:31N 48°57' W 123°13'5 9.8
2017-Sep-20 00:00N 49°00' W 123°08'0 0.3
2017-Sep-19 23:30N 49°00' W 123°08'1019.0
2017-Sep-19 23:00N 48°53' W 123°18'917.2
2017-Sep-19 22:30N 48°45' W 123°21'4 8.4
2017-Sep-19 22:00N 48°41' W 123°25'1 1.1
2017-Sep-19 21:30N 48°42' W 123°24'917.4
2017-Sep-19 21:01N 48°50' W 123°21'714.7
2017-Sep-19 20:31N 48°56' W 123°14'612.1
2017-Sep-19 20:00N 49°00' W 123°08'0 0.8
2017-Sep-19 19:31N 49°00' W 123°08'917.0
2017-Sep-19 19:00N 48°54' W 123°17'815.6
2017-Sep-19 18:31N 48°46' W 123°21'611.0
2017-Sep-19 18:00N 48°41' W 123°25'0 0.1
2017-Sep-19 17:30N 48°41' W 123°25'714.9
2017-Sep-19 17:00N 48°48' W 123°21'816.7
2017-Sep-19 16:30N 48°56' W 123°15'612.6
2017-Sep-19 16:00N 49°00' W 123°08'0 0.1
2017-Sep-19 15:30N 49°00' W 123°08'917.3
2017-Sep-19 15:01N 48°54' W 123°16'713.9
2017-Sep-19 14:31N 48°47' W 123°21'612.9
2017-Sep-19 14:01N 48°41' W 123°25'0 0.0
2017-Sep-19 13:31N 48°41' W 123°25'0 0.0
2017-Sep-19 13:00N 48°41' W 123°25'0 0.0
2017-Sep-19 12:30N 48°41' W 123°25'0 0.0
2017-Sep-19 12:00N 48°41' W 123°25'0 0.0
2017-Sep-19 11:30N 48°41' W 123°25'0 0.0
2017-Sep-19 11:00N 48°41' W 123°25'0 0.0
2017-Sep-19 10:30N 48°41' W 123°25'0 0.0
2017-Sep-19 10:00N 48°41' W 123°25'0 0.0
2017-Sep-19 09:30N 48°41' W 123°25'0 0.0
2017-Sep-19 09:00N 48°41' W 123°25'0 0.0
2017-Sep-19 08:30N 48°41' W 123°25'0 0.0
2017-Sep-19 08:00N 48°41' W 123°25'0 0.0
2017-Sep-19 07:30N 48°41' W 123°25'0 0.0
2017-Sep-19 07:00N 48°41' W 123°25'0 0.0
2017-Sep-19 06:30N 48°41' W 123°25'0 0.0
2017-Sep-19 06:00N 48°41' W 123°25'0 0.0
2017-Sep-19 05:31N 48°41' W 123°25'713.6
2017-Sep-19 05:01N 48°48' W 123°21'714.5
2017-Sep-19 04:30N 48°54' W 123°16'816.0
2017-Sep-19 04:00N 49°00' W 123°08'0 0.2
2017-Sep-19 03:30N 49°00' W 123°08'815.5
2017-Sep-19 03:00N 48°54' W 123°16'714.1
2017-Sep-19 02:30N 48°48' W 123°21'714.6
2017-Sep-19 02:01N 48°41' W 123°25'0 0.2
2017-Sep-19 01:31N 48°41' W 123°25'815.8
2017-Sep-19 01:00N 48°49' W 123°21'713.5
2017-Sep-19 00:31N 48°55' W 123°16'815.2
2017-Sep-19 00:01N 49°00' W 123°08'0 0.0
2017-Sep-18 23:30N 49°00' W 123°08'816.1
2017-Sep-18 23:00N 48°54' W 123°16'816.7
2017-Sep-18 22:30N 48°47' W 123°21'611.4
2017-Sep-18 22:00N 48°41' W 123°25'1 1.3
2017-Sep-18 21:31N 48°42' W 123°24'816.4
2017-Sep-18 21:00N 48°50' W 123°21'714.3
2017-Sep-18 20:30N 48°56' W 123°15'713.4
2017-Sep-18 20:01N 49°00' W 123°08'0 0.2
2017-Sep-18 19:31N 49°00' W 123°08'816.6
2017-Sep-18 19:00N 48°54' W 123°16'815.7
2017-Sep-18 18:30N 48°47' W 123°21'611.7
2017-Sep-18 18:00N 48°41' W 123°25'0 0.0
2017-Sep-18 17:30N 48°41' W 123°25'714.4
2017-Sep-18 17:00N 48°48' W 123°21'816.0
2017-Sep-18 16:30N 48°55' W 123°15'713.9
2017-Sep-18 16:01N 49°00' W 123°08'1 2.0
2017-Sep-18 15:30N 48°60' W 123°09'1020.0
2017-Sep-18 15:00N 48°52' W 123°19'815.2
2017-Sep-18 14:30N 48°45' W 123°23'4 7.2
2017-Sep-18 14:01N 48°41' W 123°25'0 0.0
2017-Sep-18 13:30N 48°41' W 123°25'0 0.0
2017-Sep-18 13:00N 48°41' W 123°25'0 0.0
2017-Sep-18 12:30N 48°41' W 123°25'0 0.0
2017-Sep-18 12:00N 48°41' W 123°25'0 0.0
2017-Sep-18 11:27N 48°41' W 123°25'0 0.0
2017-Sep-18 11:00N 48°41' W 123°25'0 0.0
2017-Sep-18 10:30N 48°41' W 123°25'0 0.0
2017-Sep-18 10:00N 48°41' W 123°25'0 0.0
2017-Sep-18 09:30N 48°41' W 123°25'0 0.0
2017-Sep-18 09:00N 48°41' W 123°25'0 0.0
2017-Sep-18 08:30N 48°41' W 123°25'0 0.0
2017-Sep-18 08:00N 48°41' W 123°25'0 0.0
2017-Sep-18 07:30N 48°41' W 123°25'0 0.0
2017-Sep-18 07:00N 48°41' W 123°25'0 0.0
2017-Sep-18 06:30N 48°41' W 123°25'0 0.0
2017-Sep-18 06:00N 48°41' W 123°25'1 1.1
2017-Sep-18 05:31N 48°42' W 123°24'917.7
2017-Sep-18 05:00N 48°50' W 123°21'816.4
2017-Sep-18 04:30N 48°57' W 123°13'510.3
2017-Sep-18 04:00N 49°00' W 123°08'2 4.1
2017-Sep-18 03:30N 48°59' W 123°10'1019.3
2017-Sep-18 03:00N 48°51' W 123°19'714.2
2017-Sep-18 02:30N 48°45' W 123°23'4 7.1
2017-Sep-18 02:00N 48°41' W 123°25'2 4.3
2017-Sep-18 01:30N 48°42' W 123°22'1019.2
2017-Sep-18 01:01N 48°52' W 123°21'917.7
2017-Sep-18 00:30N 48°58' W 123°12'3 6.3
2017-Sep-18 00:00N 49°00' W 123°08'2 3.4
2017-Sep-17 23:30N 48°59' W 123°10'1019.7
2017-Sep-17 23:01N 48°51' W 123°19'917.3
2017-Sep-17 22:30N 48°43' W 123°21'3 5.9
2017-Sep-17 22:00N 48°41' W 123°25'2 3.9
2017-Sep-17 21:30N 48°42' W 123°22'917.8
2017-Sep-17 21:00N 48°51' W 123°21'714.6
2017-Sep-17 20:31N 48°56' W 123°14'611.2
2017-Sep-17 20:00N 49°00' W 123°08'0 0.1
2017-Sep-17 19:30N 49°00' W 123°08'917.8
2017-Sep-17 19:00N 48°54' W 123°17'816.3
2017-Sep-17 18:30N 48°46' W 123°21'510.4
2017-Sep-17 18:00N 48°41' W 123°25'1 1.0
2017-Sep-17 17:31N 48°42' W 123°24'917.7
2017-Sep-17 17:00N 48°50' W 123°21'815.9
2017-Sep-17 16:31N 48°56' W 123°13'510.8
2017-Sep-17 16:01N 49°00' W 123°08'2 3.6
2017-Sep-17 15:30N 48°59' W 123°09'715.0
2017-Sep-17 15:01N 48°53' W 123°17'612.1
2017-Sep-17 14:30N 48°48' W 123°21'713.7
2017-Sep-17 14:00N 48°41' W 123°25'0 0.0
2017-Sep-17 13:30N 48°41' W 123°25'0 0.0
2017-Sep-17 13:00N 48°41' W 123°25'0 0.0
2017-Sep-17 12:31N 48°41' W 123°25'0 0.0
2017-Sep-17 12:00N 48°41' W 123°25'0 0.0
2017-Sep-17 11:30N 48°41' W 123°25'0 0.0
2017-Sep-17 11:00N 48°41' W 123°25'0 0.0
2017-Sep-17 10:30N 48°41' W 123°25'0 0.0
2017-Sep-17 10:00N 48°41' W 123°25'0 0.0
2017-Sep-17 09:30N 48°41' W 123°25'0 0.0
2017-Sep-17 09:00N 48°41' W 123°25'0 0.0
2017-Sep-17 08:30N 48°41' W 123°25'0 0.0
2017-Sep-17 08:00N 48°41' W 123°25'0 0.0
2017-Sep-17 07:30N 48°41' W 123°25'0 0.0
2017-Sep-17 07:00N 48°41' W 123°25'0 0.0
2017-Sep-17 06:30N 48°41' W 123°25'0 0.0
2017-Sep-17 06:00N 48°41' W 123°25'1 1.3
2017-Sep-17 05:30N 48°42' W 123°24'917.5
2017-Sep-17 05:00N 48°50' W 123°21'715.0
2017-Sep-17 04:30N 48°56' W 123°15'611.9
2017-Sep-17 04:00N 49°00' W 123°08'2 4.1
2017-Sep-17 03:30N 48°58' W 123°09'917.8
2017-Sep-17 03:01N 48°52' W 123°18'815.4
2017-Sep-17 02:30N 48°45' W 123°23'4 7.6
2017-Sep-17 02:00N 48°41' W 123°25'1 1.1
2017-Sep-17 01:31N 48°42' W 123°24'917.9
2017-Sep-17 01:00N 48°50' W 123°21'917.4
2017-Sep-17 00:30N 48°57' W 123°13'5 9.1
2017-Sep-17 00:00N 49°00' W 123°08'0 0.1
2017-Sep-16 23:30N 49°00' W 123°08'917.2
2017-Sep-16 23:00N 48°54' W 123°16'815.7
2017-Sep-16 22:30N 48°47' W 123°21'611.3
2017-Sep-16 22:00N 48°41' W 123°25'1 2.4
2017-Sep-16 21:30N 48°42' W 123°23'917.4
2017-Sep-16 21:00N 48°50' W 123°21'612.5
2017-Sep-16 20:30N 48°55' W 123°16'714.2
2017-Sep-16 20:00N 49°00' W 123°08'0 0.5
2017-Sep-16 19:30N 49°00' W 123°08'918.8
2017-Sep-16 19:00N 48°53' W 123°18'714.5
2017-Sep-16 18:30N 48°46' W 123°21'510.8
2017-Sep-16 18:00N 48°41' W 123°25'2 3.3
2017-Sep-16 17:30N 48°42' W 123°22'917.6
2017-Sep-16 17:01N 48°51' W 123°21'815.7
2017-Sep-16 16:30N 48°57' W 123°14'510.5
2017-Sep-16 16:01N 49°00' W 123°08'0 0.4
2017-Sep-16 15:30N 49°00' W 123°08'815.2
2017-Sep-16 15:00N 48°54' W 123°15'714.4
2017-Sep-16 14:30N 48°48' W 123°21'714.1
2017-Sep-16 14:00N 48°41' W 123°25'0 0.0
2017-Sep-16 13:30N 48°41' W 123°25'0 0.0
2017-Sep-16 13:00N 48°41' W 123°25'0 0.0
2017-Sep-16 12:30N 48°41' W 123°25'0 0.0
2017-Sep-16 12:00N 48°41' W 123°25'0 0.0
2017-Sep-16 11:30N 48°41' W 123°25'0 0.0
2017-Sep-16 11:00N 48°41' W 123°25'0 0.0
2017-Sep-16 10:30N 48°41' W 123°25'0 0.0
2017-Sep-16 10:00N 48°41' W 123°25'0 0.0
2017-Sep-16 09:30N 48°41' W 123°25'0 0.0
2017-Sep-16 09:00N 48°41' W 123°25'0 0.0
2017-Sep-16 08:30N 48°41' W 123°25'0 0.0
2017-Sep-16 08:00N 48°41' W 123°25'0 0.0
2017-Sep-16 07:30N 48°41' W 123°25'0 0.0
2017-Sep-16 07:00N 48°41' W 123°25'0 0.0
2017-Sep-16 06:30N 48°41' W 123°25'0 0.0
2017-Sep-16 06:00N 48°41' W 123°25'3 5.4
2017-Sep-16 05:30N 48°43' W 123°21'918.0
2017-Sep-16 05:01N 48°52' W 123°20'917.7
2017-Sep-16 04:30N 48°58' W 123°11'3 5.9
2017-Sep-16 04:00N 49°00' W 123°08'2 4.8
2017-Sep-16 03:30N 48°58' W 123°09'918.0
2017-Sep-16 03:00N 48°52' W 123°19'713.8
2017-Sep-16 02:31N 48°45' W 123°22'4 8.3
2017-Sep-16 02:00N 48°41' W 123°25'2 4.5
2017-Sep-16 01:31N 48°42' W 123°22'918.9
2017-Sep-16 01:00N 48°52' W 123°20'917.5
2017-Sep-16 00:31N 48°58' W 123°11'3 6.2
2017-Sep-16 00:00N 49°00' W 123°08'2 3.8
2017-Sep-15 23:31N 48°59' W 123°09'918.6
2017-Sep-15 23:01N 48°52' W 123°19'714.2
2017-Sep-15 22:31N 48°45' W 123°23'4 7.8
2017-Sep-15 22:00N 48°41' W 123°25'1 1.8
2017-Sep-15 21:31N 48°42' W 123°23'917.8
2017-Sep-15 21:01N 48°50' W 123°21'816.3
2017-Sep-15 20:30N 48°57' W 123°13'510.1
2017-Sep-15 20:01N 49°00' W 123°08'0 0.1
2017-Sep-15 19:30N 49°00' W 123°08'918.0
2017-Sep-15 19:00N 48°54' W 123°17'816.8
2017-Sep-15 18:30N 48°45' W 123°21'5 9.7
2017-Sep-15 18:00N 48°41' W 123°25'1 1.4
2017-Sep-15 17:31N 48°42' W 123°24'816.3
2017-Sep-15 17:01N 48°49' W 123°21'612.9
2017-Sep-15 16:30N 48°55' W 123°16'714.7
2017-Sep-15 16:00N 49°00' W 123°08'0 0.0
2017-Sep-15 15:30N 49°00' W 123°08'714.3
2017-Sep-15 15:01N 48°55' W 123°15'815.5
2017-Sep-15 14:30N 48°48' W 123°21'714.4
2017-Sep-15 14:01N 48°41' W 123°25'0 0.0
2017-Sep-15 13:31N 48°41' W 123°25'0 0.0
2017-Sep-15 12:59N 48°41' W 123°25'0 0.0
2017-Sep-15 12:29N 48°41' W 123°25'0 0.0
2017-Sep-15 11:59N 48°41' W 123°25'0 0.0
2017-Sep-15 11:29N 48°41' W 123°25'0 0.0
2017-Sep-15 10:59N 48°41' W 123°25'0 0.0
2017-Sep-15 10:29N 48°41' W 123°25'0 0.0
2017-Sep-15 09:59N 48°41' W 123°25'0 0.0
2017-Sep-15 09:29N 48°41' W 123°25'0 0.0
2017-Sep-15 08:59N 48°41' W 123°25'0 0.0
2017-Sep-15 08:29N 48°41' W 123°25'0 0.0
2017-Sep-15 07:59N 48°41' W 123°25'0 0.0
2017-Sep-15 07:29N 48°41' W 123°25'0 0.0
2017-Sep-15 06:59N 48°41' W 123°25'0 0.0
2017-Sep-15 06:29N 48°41' W 123°25'0 0.0
2017-Sep-15 05:59N 48°41' W 123°25'0 0.0
2017-Sep-15 05:31N 48°41' W 123°25'815.0
2017-Sep-15 05:00N 48°49' W 123°21'815.8
2017-Sep-15 04:30N 48°55' W 123°15'713.5
2017-Sep-15 04:00N 49°00' W 123°08'0 0.0
2017-Sep-15 03:30N 49°00' W 123°08'815.5
2017-Sep-15 03:00N 48°54' W 123°15'714.3
2017-Sep-15 02:30N 48°48' W 123°21'714.2
2017-Sep-15 02:00N 48°41' W 123°25'0 0.1
2017-Sep-15 01:30N 48°41' W 123°25'714.9
2017-Sep-15 01:00N 48°48' W 123°21'714.9
2017-Sep-15 00:30N 48°55' W 123°15'714.5
2017-Sep-15 00:00N 49°00' W 123°08'0 0.1
2017-Sep-14 23:30N 49°00' W 123°08'816.1
2017-Sep-14 23:01N 48°54' W 123°16'713.8
2017-Sep-14 22:30N 48°48' W 123°21'714.3
2017-Sep-14 22:00N 48°41' W 123°25'0 0.0
2017-Sep-14 21:31N 48°41' W 123°25'714.8
2017-Sep-14 21:00N 48°48' W 123°21'816.3
2017-Sep-14 20:30N 48°55' W 123°14'713.0
2017-Sep-14 20:00N 49°00' W 123°08'0 0.2
2017-Sep-14 19:31N 49°00' W 123°08'918.0
2017-Sep-14 19:01N 48°53' W 123°17'815.6
2017-Sep-14 18:31N 48°46' W 123°21'510.5
2017-Sep-14 18:00N 48°41' W 123°25'0 0.7
2017-Sep-14 17:30N 48°42' W 123°24'815.9
2017-Sep-14 17:00N 48°49' W 123°21'714.8
2017-Sep-14 16:30N 48°56' W 123°15'713.3
2017-Sep-14 16:00N 49°00' W 123°08'0 0.2
2017-Sep-14 15:30N 49°00' W 123°08'714.8
2017-Sep-14 15:00N 48°54' W 123°15'815.8
2017-Sep-14 14:30N 48°47' W 123°21'713.3
2017-Sep-14 14:01N 48°41' W 123°25'0 0.0
2017-Sep-14 13:31N 48°41' W 123°25'0 0.0
2017-Sep-14 12:58N 48°41' W 123°25'0 0.0
2017-Sep-14 12:28N 48°41' W 123°25'0 0.0
2017-Sep-14 11:58N 48°41' W 123°25'0 0.0
2017-Sep-14 11:28N 48°41' W 123°25'0 0.0
2017-Sep-14 10:52N 48°41' W 123°25'0 0.0
2017-Sep-14 10:25N 48°41' W 123°25'0 0.0
2017-Sep-14 09:58N 48°41' W 123°25'0 0.0
2017-Sep-14 09:25N 48°41' W 123°25'0 0.0
2017-Sep-14 08:55N 48°41' W 123°25'0 0.0
2017-Sep-14 08:28N 48°41' W 123°25'0 0.0
2017-Sep-14 07:58N 48°41' W 123°25'0 0.0
2017-Sep-14 07:28N 48°41' W 123°25'0 0.0
2017-Sep-14 06:58N 48°41' W 123°25'0 0.0
2017-Sep-14 06:28N 48°41' W 123°25'0 0.0
2017-Sep-14 05:58N 48°41' W 123°25'0 0.0
2017-Sep-14 05:29N 48°41' W 123°25'713.8
2017-Sep-14 05:00N 48°47' W 123°21'815.2
2017-Sep-14 04:30N 48°55' W 123°17'816.1
2017-Sep-14 04:00N 49°00' W 123°08'0 0.0
2017-Sep-14 03:30N 49°00' W 123°08'714.4
2017-Sep-14 03:00N 48°55' W 123°15'815.9
2017-Sep-14 02:30N 48°48' W 123°21'713.8
2017-Sep-14 02:00N 48°41' W 123°25'0 0.0
2017-Sep-14 01:30N 48°41' W 123°25'713.8
2017-Sep-14 01:00N 48°48' W 123°21'816.0
2017-Sep-14 00:30N 48°55' W 123°15'714.3
2017-Sep-14 00:00N 49°00' W 123°08'0 0.0
2017-Sep-13 23:30N 49°00' W 123°08'816.6
2017-Sep-13 23:01N 48°54' W 123°16'714.2
2017-Sep-13 22:31N 48°48' W 123°21'713.5
2017-Sep-13 22:01N 48°41' W 123°25'0 0.0
2017-Sep-13 21:31N 48°41' W 123°25'714.7
2017-Sep-13 21:01N 48°48' W 123°21'815.5
2017-Sep-13 20:31N 48°55' W 123°15'714.2
2017-Sep-13 20:01N 49°00' W 123°08'0 0.2
2017-Sep-13 19:31N 49°00' W 123°08'917.6
2017-Sep-13 19:00N 48°53' W 123°17'815.4
2017-Sep-13 18:30N 48°46' W 123°21'510.9
2017-Sep-13 18:00N 48°41' W 123°25'0 0.4
2017-Sep-13 17:30N 48°41' W 123°24'815.5
2017-Sep-13 17:00N 48°49' W 123°21'612.6
2017-Sep-13 16:30N 48°55' W 123°17'816.1
2017-Sep-13 16:01N 49°00' W 123°08'0 0.1
2017-Sep-13 15:31N 49°00' W 123°08'815.2
2017-Sep-13 15:00N 48°54' W 123°15'714.7
2017-Sep-13 14:30N 48°48' W 123°21'714.3
2017-Sep-13 14:01N 48°41' W 123°25'0 0.0
2017-Sep-13 13:28N 48°41' W 123°25'0 0.0
2017-Sep-13 12:58N 48°41' W 123°25'0 0.0
2017-Sep-13 12:28N 48°41' W 123°25'0 0.0
2017-Sep-13 11:58N 48°41' W 123°25'0 0.0
2017-Sep-13 11:28N 48°41' W 123°25'0 0.0
2017-Sep-13 10:58N 48°41' W 123°25'0 0.0
2017-Sep-13 10:28N 48°41' W 123°25'0 0.0
2017-Sep-13 09:58N 48°41' W 123°25'0 0.0
2017-Sep-13 09:28N 48°41' W 123°25'0 0.0
2017-Sep-13 08:58N 48°41' W 123°25'0 0.0
2017-Sep-13 08:28N 48°41' W 123°25'0 0.0
2017-Sep-13 07:58N 48°41' W 123°25'0 0.0
2017-Sep-13 07:28N 48°41' W 123°25'0 0.0
2017-Sep-13 06:58N 48°41' W 123°25'0 0.0
2017-Sep-13 06:28N 48°41' W 123°25'0 0.0
2017-Sep-13 05:58N 48°41' W 123°25'0 0.0
2017-Sep-13 05:28N 48°41' W 123°25'613.4
2017-Sep-13 05:00N 48°47' W 123°21'816.4
2017-Sep-13 04:30N 48°55' W 123°16'815.8
2017-Sep-13 04:00N 49°00' W 123°08'0 0.0
2017-Sep-13 03:30N 49°00' W 123°08'714.0
2017-Sep-13 03:01N 48°55' W 123°15'816.5
2017-Sep-13 02:30N 48°48' W 123°21'713.8
2017-Sep-13 02:00N 48°41' W 123°25'0 0.3
2017-Sep-13 01:30N 48°41' W 123°25'815.9
2017-Sep-13 01:00N 48°49' W 123°21'714.4
2017-Sep-13 00:30N 48°55' W 123°15'713.9
2017-Sep-13 00:00N 49°00' W 123°08'0 0.5
2017-Sep-12 23:31N 49°00' W 123°08'918.2
2017-Sep-12 23:01N 48°53' W 123°17'815.0
2017-Sep-12 22:31N 48°46' W 123°21'510.6
2017-Sep-12 22:01N 48°41' W 123°25'0 0.3
2017-Sep-12 21:31N 48°41' W 123°25'816.8
2017-Sep-12 21:01N 48°49' W 123°21'917.3
2017-Sep-12 20:31N 48°57' W 123°15'510.7
2017-Sep-12 20:00N 49°00' W 123°08'1 1.8
2017-Sep-12 19:30N 48°60' W 123°08'816.6
2017-Sep-12 19:01N 48°53' W 123°17'714.9
2017-Sep-12 18:31N 48°47' W 123°21'611.2
2017-Sep-12 18:00N 48°41' W 123°25'0 0.7
2017-Sep-12 17:31N 48°42' W 123°24'816.1
2017-Sep-12 17:00N 48°49' W 123°21'714.5
2017-Sep-12 16:31N 48°56' W 123°15'713.7
2017-Sep-12 16:00N 49°00' W 123°08'0 0.0
2017-Sep-12 15:31N 49°00' W 123°08'816.2
2017-Sep-12 15:01N 48°54' W 123°16'815.1
2017-Sep-12 14:30N 48°47' W 123°21'612.8
2017-Sep-12 14:00N 48°41' W 123°25'0 0.0
2017-Sep-12 13:28N 48°41' W 123°25'0 0.0
2017-Sep-12 12:58N 48°41' W 123°25'0 0.0
2017-Sep-12 12:28N 48°41' W 123°25'0 0.0
2017-Sep-12 11:58N 48°41' W 123°25'0 0.0
2017-Sep-12 11:28N 48°41' W 123°25'0 0.0
2017-Sep-12 10:58N 48°41' W 123°25'0 0.0
2017-Sep-12 10:28N 48°41' W 123°25'0 0.0
2017-Sep-12 09:58N 48°41' W 123°25'0 0.0
2017-Sep-12 09:28N 48°41' W 123°25'0 0.0
2017-Sep-12 08:58N 48°41' W 123°25'0 0.0
2017-Sep-12 08:28N 48°41' W 123°25'0 0.0
2017-Sep-12 07:58N 48°41' W 123°25'0 0.0
2017-Sep-12 07:28N 48°41' W 123°25'0 0.0
2017-Sep-12 06:55N 48°41' W 123°25'0 0.0
2017-Sep-12 06:28N 48°41' W 123°25'0 0.0
2017-Sep-12 05:58N 48°41' W 123°25'0 0.0
2017-Sep-12 05:30N 48°41' W 123°25'713.5
2017-Sep-12 05:01N 48°47' W 123°21'815.9
2017-Sep-12 04:30N 48°55' W 123°16'815.3
2017-Sep-12 04:00N 49°00' W 123°08'0 0.3
2017-Sep-12 03:31N 49°00' W 123°08'918.5
2017-Sep-12 03:00N 48°53' W 123°17'816.8
2017-Sep-12 02:30N 48°45' W 123°22'  
Track history (hours):
 
Tides and Currents Weather Stations Pressure Air Temp Water Temp Dewpoint Dewpoint Depression Visibility Wind Speed Wind Dir Waves Ship Positions

Spirit Of Vi

Last reported at 2017-Sep-22 02:01 UTC. Time now 2017-Sep-22 06:13 UTC.
Position N 48°41' W 123°25'.

Length 168 m; draft 5 m.

Type: Ship. MMSI: 316001269.

Date/timePositionNaut miles runAvg speedWind from/ knotsBaromVisibWave heightAir tempDewpointWater temp
2017-Sep-22 02:01N 48°41' W 123°25'0 0.3
2017-Sep-22 01:30N 48°41' W 123°25'815.4
2017-Sep-22 01:00N 48°49' W 123°21'815.3
2017-Sep-22 00:30N 48°56' W 123°15'713.7
2017-Sep-22 00:00N 49°00' W 123°08'0 0.3
2017-Sep-21 23:30N 49°00' W 123°08'715.0
2017-Sep-21 23:00N 48°54' W 123°15'815.5
2017-Sep-21 22:30N 48°48' W 123°21'713.3
2017-Sep-21 22:00N 48°41' W 123°25'0 0.7
2017-Sep-21 21:31N 48°41' W 123°24'917.5
2017-Sep-21 21:01N 48°50' W 123°21'612.5
2017-Sep-21 20:30N 48°55' W 123°16'714.4
2017-Sep-21 20:01N 49°00' W 123°08'1 1.0
2017-Sep-21 19:30N 48°60' W 123°08'1019.6
2017-Sep-21 19:00N 48°52' W 123°18'715.0
2017-Sep-21 18:30N 48°45' W 123°22'4 8.8
2017-Sep-21 18:00N 48°41' W 123°25'0 0.0
2017-Sep-21 17:31N 48°41' W 123°25'814.9
2017-Sep-21 17:00N 48°48' W 123°21'815.5
2017-Sep-21 16:30N 48°55' W 123°15'713.9
2017-Sep-21 16:00N 49°00' W 123°08'0 0.0
2017-Sep-21 15:30N 49°00' W 123°08'816.8
2017-Sep-21 15:01N 48°54' W 123°16'713.1
2017-Sep-21 14:30N 48°48' W 123°21'714.3
2017-Sep-21 14:00N 48°41' W 123°25'0 0.1
2017-Sep-21 13:31N 48°41' W 123°25'0 0.0
2017-Sep-21 13:00N 48°41' W 123°25'0 0.0
2017-Sep-21 12:30N 48°41' W 123°25'0 0.0
2017-Sep-21 12:00N 48°41' W 123°25'0 0.0
2017-Sep-21 11:30N 48°41' W 123°25'0 0.0
2017-Sep-21 11:00N 48°41' W 123°25'0 0.0
2017-Sep-21 10:30N 48°41' W 123°25'0 0.0
2017-Sep-21 10:00N 48°41' W 123°25'0 0.0
2017-Sep-21 09:30N 48°41' W 123°25'0 0.0
2017-Sep-21 09:00N 48°41' W 123°25'0 0.0
2017-Sep-21 08:30N 48°41' W 123°25'0 0.0
2017-Sep-21 08:00N 48°41' W 123°25'0 0.0
2017-Sep-21 07:30N 48°41' W 123°25'0 0.0
2017-Sep-21 07:00N 48°41' W 123°25'0 0.0
2017-Sep-21 06:30N 48°41' W 123°25'0 0.0
2017-Sep-21 06:00N 48°41' W 123°25'0 0.0
2017-Sep-21 05:30N 48°41' W 123°25'714.0
2017-Sep-21 05:00N 48°48' W 123°21'815.3
2017-Sep-21 04:30N 48°55' W 123°16'815.1
2017-Sep-21 04:00N 49°00' W 123°08'0 0.4
2017-Sep-21 03:31N 49°00' W 123°08'917.9
2017-Sep-21 03:01N 48°53' W 123°17'714.3
2017-Sep-21 02:31N 48°47' W 123°21'611.6
2017-Sep-21 02:00N 48°41' W 123°25'0 0.5
2017-Sep-21 01:31N 48°41' W 123°24'816.4
2017-Sep-21 01:00N 48°49' W 123°21'816.1
2017-Sep-21 00:30N 48°56' W 123°14'611.5
2017-Sep-21 00:00N 49°00' W 123°08'0 0.0
2017-Sep-20 23:30N 49°00' W 123°08'815.5
2017-Sep-20 23:01N 48°54' W 123°16'815.8
2017-Sep-20 22:31N 48°47' W 123°21'713.0
2017-Sep-20 22:00N 48°41' W 123°25'0 0.0
2017-Sep-20 21:30N 48°41' W 123°25'714.0
2017-Sep-20 21:00N 48°48' W 123°21'815.1
2017-Sep-20 20:30N 48°55' W 123°16'815.3
2017-Sep-20 20:00N 49°00' W 123°08'0 0.0
2017-Sep-20 19:30N 49°00' W 123°08'816.3
2017-Sep-20 19:00N 48°54' W 123°16'814.8
2017-Sep-20 18:30N 48°47' W 123°21'713.4
2017-Sep-20 18:00N 48°41' W 123°25'0 0.0
2017-Sep-20 17:30N 48°41' W 123°25'714.1
2017-Sep-20 17:00N 48°48' W 123°21'815.8
2017-Sep-20 16:30N 48°55' W 123°16'714.5
2017-Sep-20 16:00N 49°00' W 123°08'0 0.0
2017-Sep-20 15:30N 49°00' W 123°08'816.2
2017-Sep-20 15:00N 48°54' W 123°16'1414.0
2017-Sep-20 14:01N 48°41' W 123°25'0 0.0
2017-Sep-20 13:30N 48°41' W 123°25'0 0.0
2017-Sep-20 13:01N 48°41' W 123°25'0 0.0
2017-Sep-20 12:29N 48°41' W 123°25'0 0.0
2017-Sep-20 11:59N 48°41' W 123°25'0 0.0
2017-Sep-20 11:29N 48°41' W 123°25'0 0.0
2017-Sep-20 10:59N 48°41' W 123°25'0 0.0
2017-Sep-20 10:29N 48°41' W 123°25'0 0.0
2017-Sep-20 09:59N 48°41' W 123°25'0 0.0
2017-Sep-20 09:29N 48°41' W 123°25'0 0.0
2017-Sep-20 08:59N 48°41' W 123°25'0 0.0
2017-Sep-20 08:29N 48°41' W 123°25'0 0.0
2017-Sep-20 07:59N 48°41' W 123°25'0 0.0
2017-Sep-20 07:29N 48°41' W 123°25'0 0.0
2017-Sep-20 06:59N 48°41' W 123°25'0 0.0
2017-Sep-20 06:29N 48°41' W 123°25'0 0.0
2017-Sep-20 05:59N 48°41' W 123°25'0 0.0
2017-Sep-20 05:29N 48°41' W 123°25'612.5
2017-Sep-20 05:01N 48°47' W 123°21'816.2
2017-Sep-20 04:31N 48°54' W 123°16'816.3
2017-Sep-20 04:00N 49°00' W 123°08'1 1.8
2017-Sep-20 03:30N 48°60' W 123°09'917.6
2017-Sep-20 03:01N 48°53' W 123°17'714.8
2017-Sep-20 02:31N 48°46' W 123°22'510.2
2017-Sep-20 02:00N 48°41' W 123°25'0 0.8
2017-Sep-20 01:30N 48°42' W 123°24'917.6
2017-Sep-20 01:01N 48°50' W 123°21'816.9
2017-Sep-20 00:31N 48°57' W 123°13'5 9.8
2017-Sep-20 00:00N 49°00' W 123°08'0 0.3
2017-Sep-19 23:30N 49°00' W 123°08'1019.0
2017-Sep-19 23:00N 48°53' W 123°18'917.2
2017-Sep-19 22:30N 48°45' W 123°21'4 8.4
2017-Sep-19 22:00N 48°41' W 123°25'1 1.1
2017-Sep-19 21:30N 48°42' W 123°24'917.4
2017-Sep-19 21:01N 48°50' W 123°21'714.7
2017-Sep-19 20:31N 48°56' W 123°14'612.1
2017-Sep-19 20:00N 49°00' W 123°08'0 0.8
2017-Sep-19 19:31N 49°00' W 123°08'917.0
2017-Sep-19 19:00N 48°54' W 123°17'815.6
2017-Sep-19 18:31N 48°46' W 123°21'611.0
2017-Sep-19 18:00N 48°41' W 123°25'0 0.1
2017-Sep-19 17:30N 48°41' W 123°25'714.9
2017-Sep-19 17:00N 48°48' W 123°21'816.7
2017-Sep-19 16:30N 48°56' W 123°15'612.6
2017-Sep-19 16:00N 49°00' W 123°08'0 0.1
2017-Sep-19 15:30N 49°00' W 123°08'917.3
2017-Sep-19 15:01N 48°54' W 123°16'713.9
2017-Sep-19 14:31N 48°47' W 123°21'612.9
2017-Sep-19 14:01N 48°41' W 123°25'0 0.0
2017-Sep-19 13:31N 48°41' W 123°25'0 0.0
2017-Sep-19 13:00N 48°41' W 123°25'0 0.0
2017-Sep-19 12:30N 48°41' W 123°25'0 0.0
2017-Sep-19 12:00N 48°41' W 123°25'0 0.0
2017-Sep-19 11:30N 48°41' W 123°25'0 0.0
2017-Sep-19 11:00N 48°41' W 123°25'0 0.0
2017-Sep-19 10:30N 48°41' W 123°25'0 0.0
2017-Sep-19 10:00N 48°41' W 123°25'0 0.0
2017-Sep-19 09:30N 48°41' W 123°25'0 0.0
2017-Sep-19 09:00N 48°41' W 123°25'0 0.0
2017-Sep-19 08:30N 48°41' W 123°25'0 0.0
2017-Sep-19 08:00N 48°41' W 123°25'0 0.0
2017-Sep-19 07:30N 48°41' W 123°25'0 0.0
2017-Sep-19 07:00N 48°41' W 123°25'0 0.0
2017-Sep-19 06:30N 48°41' W 123°25'0 0.0
2017-Sep-19 06:00N 48°41' W 123°25'0 0.0
2017-Sep-19 05:31N 48°41' W 123°25'713.6
2017-Sep-19 05:01N 48°48' W 123°21'714.5
2017-Sep-19 04:30N 48°54' W 123°16'816.0
2017-Sep-19 04:00N 49°00' W 123°08'0 0.2
2017-Sep-19 03:30N 49°00' W 123°08'815.5
2017-Sep-19 03:00N 48°54' W 123°16'714.1
2017-Sep-19 02:30N 48°48' W 123°21'714.6
2017-Sep-19 02:01N 48°41' W 123°25'0 0.2
2017-Sep-19 01:31N 48°41' W 123°25'815.8
2017-Sep-19 01:00N 48°49' W 123°21'713.5
2017-Sep-19 00:31N 48°55' W 123°16'815.2
2017-Sep-19 00:01N 49°00' W 123°08'0 0.0
2017-Sep-18 23:30N 49°00' W 123°08'816.1
2017-Sep-18 23:00N 48°54' W 123°16'816.7
2017-Sep-18 22:30N 48°47' W 123°21'611.4
2017-Sep-18 22:00N 48°41' W 123°25'1 1.3
2017-Sep-18 21:31N 48°42' W 123°24'816.4
2017-Sep-18 21:00N 48°50' W 123°21'714.3
2017-Sep-18 20:30N 48°56' W 123°15'713.4
2017-Sep-18 20:01N 49°00' W 123°08'0 0.2
2017-Sep-18 19:31N 49°00' W 123°08'816.6
2017-Sep-18 19:00N 48°54' W 123°16'815.7
2017-Sep-18 18:30N 48°47' W 123°21'611.7
2017-Sep-18 18:00N 48°41' W 123°25'0 0.0
2017-Sep-18 17:30N 48°41' W 123°25'714.4
2017-Sep-18 17:00N 48°48' W 123°21'816.0
2017-Sep-18 16:30N 48°55' W 123°15'713.9
2017-Sep-18 16:01N 49°00' W 123°08'1 2.0
2017-Sep-18 15:30N 48°60' W 123°09'1020.0
2017-Sep-18 15:00N 48°52' W 123°19'815.2
2017-Sep-18 14:30N 48°45' W 123°23'4 7.2
2017-Sep-18 14:01N 48°41' W 123°25'0 0.0
2017-Sep-18 13:30N 48°41' W 123°25'0 0.0
2017-Sep-18 13:00N 48°41' W 123°25'0 0.0
2017-Sep-18 12:30N 48°41' W 123°25'0 0.0
2017-Sep-18 12:00N 48°41' W 123°25'0 0.0
2017-Sep-18 11:27N 48°41' W 123°25'0 0.0
2017-Sep-18 11:00N 48°41' W 123°25'0 0.0
2017-Sep-18 10:30N 48°41' W 123°25'0 0.0
2017-Sep-18 10:00N 48°41' W 123°25'0 0.0
2017-Sep-18 09:30N 48°41' W 123°25'0 0.0
2017-Sep-18 09:00N 48°41' W 123°25'0 0.0
2017-Sep-18 08:30N 48°41' W 123°25'0 0.0
2017-Sep-18 08:00N 48°41' W 123°25'0 0.0
2017-Sep-18 07:30N 48°41' W 123°25'0 0.0
2017-Sep-18 07:00N 48°41' W 123°25'0 0.0
2017-Sep-18 06:30N 48°41' W 123°25'0 0.0
2017-Sep-18 06:00N 48°41' W 123°25'1 1.1
2017-Sep-18 05:31N 48°42' W 123°24'917.7
2017-Sep-18 05:00N 48°50' W 123°21'816.4
2017-Sep-18 04:30N 48°57' W 123°13'510.3
2017-Sep-18 04:00N 49°00' W 123°08'2 4.1
2017-Sep-18 03:30N 48°59' W 123°10'1019.3
2017-Sep-18 03:00N 48°51' W 123°19'714.2
2017-Sep-18 02:30N 48°45' W 123°23'4 7.1
2017-Sep-18 02:00N 48°41' W 123°25'2 4.3
2017-Sep-18 01:30N 48°42' W 123°22'1019.2
2017-Sep-18 01:01N 48°52' W 123°21'917.7
2017-Sep-18 00:30N 48°58' W 123°12'3 6.3
2017-Sep-18 00:00N 49°00' W 123°08'2 3.4
2017-Sep-17 23:30N 48°59' W 123°10'1019.7
2017-Sep-17 23:01N 48°51' W 123°19'917.3
2017-Sep-17 22:30N 48°43' W 123°21'3 5.9
2017-Sep-17 22:00N 48°41' W 123°25'2 3.9
2017-Sep-17 21:30N 48°42' W 123°22'917.8
2017-Sep-17 21:00N 48°51' W 123°21'714.6
2017-Sep-17 20:31N 48°56' W 123°14'611.2
2017-Sep-17 20:00N 49°00' W 123°08'0 0.1
2017-Sep-17 19:30N 49°00' W 123°08'917.8
2017-Sep-17 19:00N 48°54' W 123°17'816.3
2017-Sep-17 18:30N 48°46' W 123°21'510.4
2017-Sep-17 18:00N 48°41' W 123°25'1 1.0
2017-Sep-17 17:31N 48°42' W 123°24'917.7
2017-Sep-17 17:00N 48°50' W 123°21'815.9
2017-Sep-17 16:31N 48°56' W 123°13'510.8
2017-Sep-17 16:01N 49°00' W 123°08'2 3.6
2017-Sep-17 15:30N 48°59' W 123°09'715.0
2017-Sep-17 15:01N 48°53' W 123°17'612.1
2017-Sep-17 14:30N 48°48' W 123°21'713.7
2017-Sep-17 14:00N 48°41' W 123°25'0 0.0
2017-Sep-17 13:30N 48°41' W 123°25'0 0.0
2017-Sep-17 13:00N 48°41' W 123°25'0 0.0
2017-Sep-17 12:31N 48°41' W 123°25'0 0.0
2017-Sep-17 12:00N 48°41' W 123°25'0 0.0
2017-Sep-17 11:30N 48°41' W 123°25'0 0.0
2017-Sep-17 11:00N 48°41' W 123°25'0 0.0
2017-Sep-17 10:30N 48°41' W 123°25'0 0.0
2017-Sep-17 10:00N 48°41' W 123°25'0 0.0
2017-Sep-17 09:30N 48°41' W 123°25'0 0.0
2017-Sep-17 09:00N 48°41' W 123°25'0 0.0
2017-Sep-17 08:30N 48°41' W 123°25'0 0.0
2017-Sep-17 08:00N 48°41' W 123°25'0 0.0
2017-Sep-17 07:30N 48°41' W 123°25'0 0.0
2017-Sep-17 07:00N 48°41' W 123°25'0 0.0
2017-Sep-17 06:30N 48°41' W 123°25'0 0.0
2017-Sep-17 06:00N 48°41' W 123°25'1 1.3
2017-Sep-17 05:30N 48°42' W 123°24'917.5
2017-Sep-17 05:00N 48°50' W 123°21'715.0
2017-Sep-17 04:30N 48°56' W 123°15'611.9
2017-Sep-17 04:00N 49°00' W 123°08'2 4.1
2017-Sep-17 03:30N 48°58' W 123°09'917.8
2017-Sep-17 03:01N 48°52' W 123°18'815.4
2017-Sep-17 02:30N 48°45' W 123°23'4 7.6
2017-Sep-17 02:00N 48°41' W 123°25'1 1.1
2017-Sep-17 01:31N 48°42' W 123°24'917.9
2017-Sep-17 01:00N 48°50' W 123°21'917.4
2017-Sep-17 00:30N 48°57' W 123°13'5 9.1
2017-Sep-17 00:00N 49°00' W 123°08'0 0.1
2017-Sep-16 23:30N 49°00' W 123°08'917.2
2017-Sep-16 23:00N 48°54' W 123°16'815.7
2017-Sep-16 22:30N 48°47' W 123°21'611.3
2017-Sep-16 22:00N 48°41' W 123°25'1 2.4
2017-Sep-16 21:30N 48°42' W 123°23'917.4
2017-Sep-16 21:00N 48°50' W 123°21'612.5
2017-Sep-16 20:30N 48°55' W 123°16'714.2
2017-Sep-16 20:00N 49°00' W 123°08'0 0.5
2017-Sep-16 19:30N 49°00' W 123°08'918.8
2017-Sep-16 19:00N 48°53' W 123°18'714.5
2017-Sep-16 18:30N 48°46' W 123°21'510.8
2017-Sep-16 18:00N 48°41' W 123°25'2 3.3
2017-Sep-16 17:30N 48°42' W 123°22'917.6
2017-Sep-16 17:01N 48°51' W 123°21'815.7
2017-Sep-16 16:30N 48°57' W 123°14'510.5
2017-Sep-16 16:01N 49°00' W 123°08'0 0.4
2017-Sep-16 15:30N 49°00' W 123°08'815.2
2017-Sep-16 15:00N 48°54' W 123°15'714.4
2017-Sep-16 14:30N 48°48' W 123°21'714.1
2017-Sep-16 14:00N 48°41' W 123°25'0 0.0
2017-Sep-16 13:30N 48°41' W 123°25'0 0.0
2017-Sep-16 13:00N 48°41' W 123°25'0 0.0
2017-Sep-16 12:30N 48°41' W 123°25'0 0.0
2017-Sep-16 12:00N 48°41' W 123°25'0 0.0
2017-Sep-16 11:30N 48°41' W 123°25'0 0.0
2017-Sep-16 11:00N 48°41' W 123°25'0 0.0
2017-Sep-16 10:30N 48°41' W 123°25'0 0.0
2017-Sep-16 10:00N 48°41' W 123°25'0 0.0
2017-Sep-16 09:30N 48°41' W 123°25'0 0.0
2017-Sep-16 09:00N 48°41' W 123°25'0 0.0
2017-Sep-16 08:30N 48°41' W 123°25'0 0.0
2017-Sep-16 08:00N 48°41' W 123°25'0 0.0
2017-Sep-16 07:30N 48°41' W 123°25'0 0.0
2017-Sep-16 07:00N 48°41' W 123°25'0 0.0
2017-Sep-16 06:30N 48°41' W 123°25'0 0.0
2017-Sep-16 06:00N 48°41' W 123°25'3 5.4
2017-Sep-16 05:30N 48°43' W 123°21'918.0
2017-Sep-16 05:01N 48°52' W 123°20'917.7
2017-Sep-16 04:30N 48°58' W 123°11'3 5.9
2017-Sep-16 04:00N 49°00' W 123°08'2 4.8
2017-Sep-16 03:30N 48°58' W 123°09'918.0
2017-Sep-16 03:00N 48°52' W 123°19'713.8
2017-Sep-16 02:31N 48°45' W 123°22'4 8.3
2017-Sep-16 02:00N 48°41' W 123°25'2 4.5
2017-Sep-16 01:31N 48°42' W 123°22'918.9
2017-Sep-16 01:00N 48°52' W 123°20'917.5
2017-Sep-16 00:31N 48°58' W 123°11'3 6.2
2017-Sep-16 00:00N 49°00' W 123°08'2 3.8
2017-Sep-15 23:31N 48°59' W 123°09'918.6
2017-Sep-15 23:01N 48°52' W 123°19'714.2
2017-Sep-15 22:31N 48°45' W 123°23'4 7.8
2017-Sep-15 22:00N 48°41' W 123°25'1 1.8
2017-Sep-15 21:31N 48°42' W 123°23'917.8
2017-Sep-15 21:01N 48°50' W 123°21'816.3
2017-Sep-15 20:30N 48°57' W 123°13'510.1
2017-Sep-15 20:01N 49°00' W 123°08'0 0.1
2017-Sep-15 19:30N 49°00' W 123°08'918.0
2017-Sep-15 19:00N 48°54' W 123°17'816.8
2017-Sep-15 18:30N 48°45' W 123°21'5 9.7
2017-Sep-15 18:00N 48°41' W 123°25'1 1.4
2017-Sep-15 17:31N 48°42' W 123°24'816.3
2017-Sep-15 17:01N 48°49' W 123°21'612.9
2017-Sep-15 16:30N 48°55' W 123°16'714.7
2017-Sep-15 16:00N 49°00' W 123°08'0 0.0
2017-Sep-15 15:30N 49°00' W 123°08'714.3
2017-Sep-15 15:01N 48°55' W 123°15'815.5
2017-Sep-15 14:30N 48°48' W 123°21'714.4
2017-Sep-15 14:01N 48°41' W 123°25'0 0.0
2017-Sep-15 13:31N 48°41' W 123°25'0 0.0
2017-Sep-15 12:59N 48°41' W 123°25'0 0.0
2017-Sep-15 12:29N 48°41' W 123°25'0 0.0
2017-Sep-15 11:59N 48°41' W 123°25'0 0.0
2017-Sep-15 11:29N 48°41' W 123°25'0 0.0
2017-Sep-15 10:59N 48°41' W 123°25'0 0.0
2017-Sep-15 10:29N 48°41' W 123°25'0 0.0
2017-Sep-15 09:59N 48°41' W 123°25'0 0.0
2017-Sep-15 09:29N 48°41' W 123°25'0 0.0
2017-Sep-15 08:59N 48°41' W 123°25'0 0.0
2017-Sep-15 08:29N 48°41' W 123°25'0 0.0
2017-Sep-15 07:59N 48°41' W 123°25'0 0.0
2017-Sep-15 07:29N 48°41' W 123°25'0 0.0
2017-Sep-15 06:59N 48°41' W 123°25'0 0.0
2017-Sep-15 06:29N 48°41' W 123°25'0 0.0
2017-Sep-15 05:59N 48°41' W 123°25'0 0.0
2017-Sep-15 05:31N 48°41' W 123°25'815.0
2017-Sep-15 05:00N 48°49' W 123°21'815.8
2017-Sep-15 04:30N 48°55' W 123°15'713.5
2017-Sep-15 04:00N 49°00' W 123°08'0 0.0
2017-Sep-15 03:30N 49°00' W 123°08'815.5
2017-Sep-15 03:00N 48°54' W 123°15'714.3
2017-Sep-15 02:30N 48°48' W 123°21'714.2
2017-Sep-15 02:00N 48°41' W 123°25'0 0.1
2017-Sep-15 01:30N 48°41' W 123°25'714.9
2017-Sep-15 01:00N 48°48' W 123°21'714.9
2017-Sep-15 00:30N 48°55' W 123°15'714.5
2017-Sep-15 00:00N 49°00' W 123°08'0 0.1
2017-Sep-14 23:30N 49°00' W 123°08'816.1
2017-Sep-14 23:01N 48°54' W 123°16'713.8
2017-Sep-14 22:30N 48°48' W 123°21'714.3
2017-Sep-14 22:00N 48°41' W 123°25'0 0.0
2017-Sep-14 21:31N 48°41' W 123°25'714.8
2017-Sep-14 21:00N 48°48' W 123°21'816.3
2017-Sep-14 20:30N 48°55' W 123°14'713.0
2017-Sep-14 20:00N 49°00' W 123°08'0 0.2
2017-Sep-14 19:31N 49°00' W 123°08'918.0
2017-Sep-14 19:01N 48°53' W 123°17'815.6
2017-Sep-14 18:31N 48°46' W 123°21'510.5
2017-Sep-14 18:00N 48°41' W 123°25'0 0.7
2017-Sep-14 17:30N 48°42' W 123°24'815.9
2017-Sep-14 17:00N 48°49' W 123°21'714.8
2017-Sep-14 16:30N 48°56' W 123°15'713.3
2017-Sep-14 16:00N 49°00' W 123°08'0 0.2
2017-Sep-14 15:30N 49°00' W 123°08'714.8
2017-Sep-14 15:00N 48°54' W 123°15'815.8
2017-Sep-14 14:30N 48°47' W 123°21'713.3
2017-Sep-14 14:01N 48°41' W 123°25'0 0.0
2017-Sep-14 13:31N 48°41' W 123°25'0 0.0
2017-Sep-14 12:58N 48°41' W 123°25'0 0.0
2017-Sep-14 12:28N 48°41' W 123°25'0 0.0
2017-Sep-14 11:58N 48°41' W 123°25'0 0.0
2017-Sep-14 11:28N 48°41' W 123°25'0 0.0
2017-Sep-14 10:52N 48°41' W 123°25'0 0.0
2017-Sep-14 10:25N 48°41' W 123°25'0 0.0
2017-Sep-14 09:58N 48°41' W 123°25'0 0.0
2017-Sep-14 09:25N 48°41' W 123°25'0 0.0
2017-Sep-14 08:55N 48°41' W 123°25'0 0.0
2017-Sep-14 08:28N 48°41' W 123°25'0 0.0
2017-Sep-14 07:58N 48°41' W 123°25'0 0.0
2017-Sep-14 07:28N 48°41' W 123°25'0 0.0
2017-Sep-14 06:58N 48°41' W 123°25'0 0.0
2017-Sep-14 06:28N 48°41' W 123°25'0 0.0
2017-Sep-14 05:58N 48°41' W 123°25'0 0.0
2017-Sep-14 05:29N 48°41' W 123°25'713.8
2017-Sep-14 05:00N 48°47' W 123°21'815.2
2017-Sep-14 04:30N 48°55' W 123°17'816.1
2017-Sep-14 04:00N 49°00' W 123°08'0 0.0
2017-Sep-14 03:30N 49°00' W 123°08'714.4
2017-Sep-14 03:00N 48°55' W 123°15'815.9
2017-Sep-14 02:30N 48°48' W 123°21'713.8
2017-Sep-14 02:00N 48°41' W 123°25'0 0.0
2017-Sep-14 01:30N 48°41' W 123°25'713.8
2017-Sep-14 01:00N 48°48' W 123°21'816.0
2017-Sep-14 00:30N 48°55' W 123°15'714.3
2017-Sep-14 00:00N 49°00' W 123°08'0 0.0
2017-Sep-13 23:30N 49°00' W 123°08'816.6
2017-Sep-13 23:01N 48°54' W 123°16'714.2
2017-Sep-13 22:31N 48°48' W 123°21'713.5
2017-Sep-13 22:01N 48°41' W 123°25'0 0.0
2017-Sep-13 21:31N 48°41' W 123°25'714.7
2017-Sep-13 21:01N 48°48' W 123°21'815.5
2017-Sep-13 20:31N 48°55' W 123°15'714.2
2017-Sep-13 20:01N 49°00' W 123°08'0 0.2
2017-Sep-13 19:31N 49°00' W 123°08'917.6
2017-Sep-13 19:00N 48°53' W 123°17'815.4
2017-Sep-13 18:30N 48°46' W 123°21'510.9
2017-Sep-13 18:00N 48°41' W 123°25'0 0.4
2017-Sep-13 17:30N 48°41' W 123°24'815.5
2017-Sep-13 17:00N 48°49' W 123°21'612.6
2017-Sep-13 16:30N 48°55' W 123°17'816.1
2017-Sep-13 16:01N 49°00' W 123°08'0 0.1
2017-Sep-13 15:31N 49°00' W 123°08'815.2
2017-Sep-13 15:00N 48°54' W 123°15'714.7
2017-Sep-13 14:30N 48°48' W 123°21'714.3
2017-Sep-13 14:01N 48°41' W 123°25'0 0.0
2017-Sep-13 13:28N 48°41' W 123°25'0 0.0
2017-Sep-13 12:58N 48°41' W 123°25'0 0.0
2017-Sep-13 12:28N 48°41' W 123°25'0 0.0
2017-Sep-13 11:58N 48°41' W 123°25'0 0.0
2017-Sep-13 11:28N 48°41' W 123°25'0 0.0
2017-Sep-13 10:58N 48°41' W 123°25'0 0.0
2017-Sep-13 10:28N 48°41' W 123°25'0 0.0
2017-Sep-13 09:58N 48°41' W 123°25'0 0.0
2017-Sep-13 09:28N 48°41' W 123°25'0 0.0
2017-Sep-13 08:58N 48°41' W 123°25'0 0.0
2017-Sep-13 08:28N 48°41' W 123°25'0 0.0
2017-Sep-13 07:58N 48°41' W 123°25'0 0.0
2017-Sep-13 07:28N 48°41' W 123°25'0 0.0
2017-Sep-13 06:58N 48°41' W 123°25'0 0.0
2017-Sep-13 06:28N 48°41' W 123°25'0 0.0
2017-Sep-13 05:58N 48°41' W 123°25'0 0.0
2017-Sep-13 05:28N 48°41' W 123°25'613.4
2017-Sep-13 05:00N 48°47' W 123°21'816.4
2017-Sep-13 04:30N 48°55' W 123°16'815.8
2017-Sep-13 04:00N 49°00' W 123°08'0 0.0
2017-Sep-13 03:30N 49°00' W 123°08'714.0
2017-Sep-13 03:01N 48°55' W 123°15'816.5
2017-Sep-13 02:30N 48°48' W 123°21'713.8
2017-Sep-13 02:00N 48°41' W 123°25'0 0.3
2017-Sep-13 01:30N 48°41' W 123°25'815.9
2017-Sep-13 01:00N 48°49' W 123°21'714.4
2017-Sep-13 00:30N 48°55' W 123°15'713.9
2017-Sep-13 00:00N 49°00' W 123°08'0 0.5
2017-Sep-12 23:31N 49°00' W 123°08'918.2
2017-Sep-12 23:01N 48°53' W 123°17'815.0
2017-Sep-12 22:31N 48°46' W 123°21'510.6
2017-Sep-12 22:01N 48°41' W 123°25'0 0.3
2017-Sep-12 21:31N 48°41' W 123°25'816.8
2017-Sep-12 21:01N 48°49' W 123°21'917.3
2017-Sep-12 20:31N 48°57' W 123°15'510.7
2017-Sep-12 20:00N 49°00' W 123°08'1 1.8
2017-Sep-12 19:30N 48°60' W 123°08'816.6
2017-Sep-12 19:01N 48°53' W 123°17'714.9
2017-Sep-12 18:31N 48°47' W 123°21'611.2
2017-Sep-12 18:00N 48°41' W 123°25'0 0.7
2017-Sep-12 17:31N 48°42' W 123°24'816.1
2017-Sep-12 17:00N 48°49' W 123°21'714.5
2017-Sep-12 16:31N 48°56' W 123°15'713.7
2017-Sep-12 16:00N 49°00' W 123°08'0 0.0
2017-Sep-12 15:31N 49°00' W 123°08'816.2
2017-Sep-12 15:01N 48°54' W 123°16'815.1
2017-Sep-12 14:30N 48°47' W 123°21'612.8
2017-Sep-12 14:00N 48°41' W 123°25'0 0.0
2017-Sep-12 13:28N 48°41' W 123°25'0 0.0
2017-Sep-12 12:58N 48°41' W 123°25'0 0.0
2017-Sep-12 12:28N 48°41' W 123°25'0 0.0
2017-Sep-12 11:58N 48°41' W 123°25'0 0.0
2017-Sep-12 11:28N 48°41' W 123°25'0 0.0
2017-Sep-12 10:58N 48°41' W 123°25'0 0.0
2017-Sep-12 10:28N 48°41' W 123°25'0 0.0
2017-Sep-12 09:58N 48°41' W 123°25'0 0.0
2017-Sep-12 09:28N 48°41' W 123°25'0 0.0
2017-Sep-12 08:58N 48°41' W 123°25'0 0.0
2017-Sep-12 08:28N 48°41' W 123°25'0 0.0
2017-Sep-12 07:58N 48°41' W 123°25'0 0.0
2017-Sep-12 07:28N 48°41' W 123°25'0 0.0
2017-Sep-12 06:55N 48°41' W 123°25'0 0.0
2017-Sep-12 06:28N 48°41' W 123°25'0 0.0
2017-Sep-12 05:58N 48°41' W 123°25'0 0.0
2017-Sep-12 05:30N 48°41' W 123°25'713.5
2017-Sep-12 05:01N 48°47' W 123°21'815.9
2017-Sep-12 04:30N 48°55' W 123°16'815.3
2017-Sep-12 04:00N 49°00' W 123°08'0 0.3
2017-Sep-12 03:31N 49°00' W 123°08'918.5
2017-Sep-12 03:00N 48°53' W 123°17'816.8
2017-Sep-12 02:30N 48°45' W 123°22'  

Dump ship's entire track history